Aérodrome :
LOGIN :

S'inscrire | Disclaimer

   EN    FR    IT 

 










Légende :    VFR   VFR Marginal   IFR   IFR Intensif   IFR Très Intensif
Visi : 
Plafond : 
>= 8 km
>= 3000ft
5 à 8 km
1000 à 3000 ft
1500m à 5 km
500 à 1000 ft
800 à 1500m
200 à 500 ft
< 800m
< 200 ft
Symboles :   Orages  Brouillard  Fortes neiges  Fortes précipitations  Vent > 20 kt
SIGMETs :   Divers  Orages  Givrage  Turbulence  Onde Orograph.  Cendres Volcan.







- Altitude de l'aérodrome : 124 ft
- Code IATA : RNS
- Voir les cartes d'approche


LFRN - Rennes

DERNIER METAR :
  • 230130Z AUTO 34003KT 9999 BKN010 OVC015 10/09 Q1017 NOSIG

METARs EXPIRÉS :
  • 230100Z AUTO 29001KT 9999 BKN011 OVC027 10/08 Q1017 TEMPO BKN008
  • 230030Z AUTO 27001KT 9999 BKN027 BKN036 10/08 Q1017 TEMPO BKN008
  • 230000Z AUTO 33002KT 9999 SCT023 11/08 Q1017 TEMPO BKN008
  • 222330Z AUTO 35004KT 9999 OVC025 12/08 Q1017 TEMPO BKN008
  • 222300Z AUTO 34003KT 9999 OVC024 12/08 Q1017 TEMPO BKN008

TAF TAF LFRN
Valide du 23 à 00h jusqu'au 24 à 00h UTC


222300Z 2300/2324 34005KT 9999 SCT020
PROB40
TEMPO 2300/2304 BKN008
TEMPO 2304/2308 BKN008
BECMG 2316/2318 36010KT
BECMG 2320/2322 VRB03KT
ATIS : +33 2 99 67 72 50
Pas de NOTAMs connus pour ce terrain.



MET'MAP, la Météo Aéronautique d'un coup d'oeil ! - Copyright ORBIFLY Décembre 2007 - Disclaimer

ORBIFLY MET'MAP TEAM :

Programmation & Développement : Alexandra Zaïnal
Conception & Développement : Baudouin d'Aumeries
Co-Programmation & Développement : Marc-Olivier Méhu
Soutien technique & logistique : Manuel Goepfert

Contact : metmap@orbifly.com




SOURCES & CREDITS :

   NOAA